sensor_id;sensor_type;location;lat;lon;timestamp;temperature;humidity
25170;DHT22;13129;48.012;10.352;2023-05-17T03:32:22;6.10;99.90
25170;DHT22;13129;48.012;10.352;2023-05-17T03:34:47;6.10;99.90
25170;DHT22;13129;48.012;10.352;2023-05-17T03:37:13;6.00;99.90
25170;DHT22;13129;48.012;10.352;2023-05-17T03:39:39;6.00;99.90
25170;DHT22;13129;48.012;10.352;2023-05-17T03:42:05;6.00;99.90
25170;DHT22;13129;48.012;10.352;2023-05-17T03:44:30;6.00;99.90
25170;DHT22;13129;48.012;10.352;2023-05-17T03:46:56;6.00;99.90
25170;DHT22;13129;48.012;10.352;2023-05-17T03:49:22;6.00;99.90
25170;DHT22;13129;48.012;10.352;2023-05-17T03:51:47;6.00;99.90
25170;DHT22;13129;48.012;10.352;2023-05-17T03:54:13;6.00;99.90
25170;DHT22;13129;48.012;10.352;2023-05-17T03:56:39;6.00;99.90
25170;DHT22;13129;48.012;10.352;2023-05-17T03:59:04;5.90;99.90
25170;DHT22;13129;48.012;10.352;2023-05-17T04:01:30;6.00;99.90
25170;DHT22;13129;48.012;10.352;2023-05-17T04:03:55;6.00;99.90
25170;DHT22;13129;48.012;10.352;2023-05-17T04:06:21;5.90;99.90
25170;DHT22;13129;48.012;10.352;2023-05-17T04:08:47;6.00;99.90
25170;DHT22;13129;48.012;10.352;2023-05-17T04:11:12;6.00;99.90
25170;DHT22;13129;48.012;10.352;2023-05-17T04:13:39;6.00;99.90
25170;DHT22;13129;48.012;10.352;2023-05-17T04:16:07;6.00;99.90
25170;DHT22;13129;48.012;10.352;2023-05-17T04:18:34;6.10;99.90
25170;DHT22;13129;48.012;10.352;2023-05-17T04:21:04;6.10;99.90
25170;DHT22;13129;48.012;10.352;2023-05-17T04:23:31;6.10;99.90
25170;DHT22;13129;48.012;10.352;2023-05-17T04:25:57;6.10;99.90
25170;DHT22;13129;48.012;10.352;2023-05-17T04:28:23;6.10;99.90
25170;DHT22;13129;48.012;10.352;2023-05-17T04:30:49;6.20;99.90
25170;DHT22;13129;48.012;10.352;2023-05-17T04:33:14;6.20;99.90
25170;DHT22;13129;48.012;10.352;2023-05-17T04:35:41;6.20;99.90
25170;DHT22;13129;48.012;10.352;2023-05-17T04:38:07;6.30;99.90
25170;DHT22;13129;48.012;10.352;2023-05-17T04:40:34;6.30;99.90
25170;DHT22;13129;48.012;10.352;2023-05-17T04:43:00;6.30;99.90
25170;DHT22;13129;48.012;10.352;2023-05-17T04:45:25;6.40;99.90
25170;DHT22;13129;48.012;10.352;2023-05-17T04:47:51;6.40;99.90
25170;DHT22;13129;48.012;10.352;2023-05-17T04:50:17;6.50;99.90
25170;DHT22;13129;48.012;10.352;2023-05-17T04:52:45;6.60;99.90
25170;DHT22;13129;48.012;10.352;2023-05-17T04:55:11;6.60;99.90
25170;DHT22;13129;48.012;10.352;2023-05-17T04:57:36;6.70;99.90
25170;DHT22;13129;48.012;10.352;2023-05-17T05:00:03;6.80;99.90
25170;DHT22;13129;48.012;10.352;2023-05-17T05:02:34;6.80;99.90
25170;DHT22;13129;48.012;10.352;2023-05-17T05:05:00;6.90;99.90
25170;DHT22;13129;48.012;10.352;2023-05-17T05:07:26;7.00;99.90
25170;DHT22;13129;48.012;10.352;2023-05-17T05:09:51;7.10;99.90
25170;DHT22;13129;48.012;10.352;2023-05-17T05:12:17;7.20;99.90
25170;DHT22;13129;48.012;10.352;2023-05-17T05:14:43;7.30;99.90
25170;DHT22;13129;48.012;10.352;2023-05-17T05:17:09;7.40;99.90
25170;DHT22;13129;48.012;10.352;2023-05-17T05:19:35;7.50;99.90
25170;DHT22;13129;48.012;10.352;2023-05-17T05:22:00;7.60;99.90
25170;DHT22;13129;48.012;10.352;2023-05-17T05:24:26;7.70;99.90
25170;DHT22;13129;48.012;10.352;2023-05-17T05:26:52;7.80;99.90
25170;DHT22;13129;48.012;10.352;2023-05-17T05:29:18;7.90;99.90
25170;DHT22;13129;48.012;10.352;2023-05-17T05:31:43;8.00;99.90
25170;DHT22;13129;48.012;10.352;2023-05-17T05:34:09;8.20;99.90
25170;DHT22;13129;48.012;10.352;2023-05-17T05:36:35;8.40;99.90
25170;DHT22;13129;48.012;10.352;2023-05-17T05:39:01;8.50;99.90
25170;DHT22;13129;48.012;10.352;2023-05-17T05:41:26;8.70;99.90
25170;DHT22;13129;48.012;10.352;2023-05-17T05:43:52;8.90;99.90
25170;DHT22;13129;48.012;10.352;2023-05-17T05:46:18;9.00;99.90
25170;DHT22;13129;48.012;10.352;2023-05-17T05:48:43;9.10;99.90
25170;DHT22;13129;48.012;10.352;2023-05-17T05:51:09;9.30;99.90
25170;DHT22;13129;48.012;10.352;2023-05-17T05:53:35;9.50;99.90
25170;DHT22;13129;48.012;10.352;2023-05-17T05:56:02;9.60;99.90
25170;DHT22;13129;48.012;10.352;2023-05-17T05:58:28;9.80;99.90
25170;DHT22;13129;48.012;10.352;2023-05-17T06:00:55;10.00;99.90
25170;DHT22;13129;48.012;10.352;2023-05-17T06:03:22;10.40;99.90
25170;DHT22;13129;48.012;10.352;2023-05-17T06:05:47;11.00;99.90
25170;DHT22;13129;48.012;10.352;2023-05-17T06:08:13;11.40;99.90
25170;DHT22;13129;48.012;10.352;2023-05-17T06:10:39;12.10;99.90
25170;DHT22;13129;48.012;10.352;2023-05-17T06:13:05;12.80;99.90
25170;DHT22;13129;48.012;10.352;2023-05-17T06:15:31;13.40;99.90
25170;DHT22;13129;48.012;10.352;2023-05-17T06:17:57;13.80;99.90
25170;DHT22;13129;48.012;10.352;2023-05-17T06:20:24;13.80;99.90
25170;DHT22;13129;48.012;10.352;2023-05-17T06:22:51;14.30;99.90
25170;DHT22;13129;48.012;10.352;2023-05-17T06:25:18;15.20;99.90
25170;DHT22;13129;48.012;10.352;2023-05-17T06:27:44;16.00;99.90
25170;DHT22;13129;48.012;10.352;2023-05-17T06:30:11;17.10;99.90
25170;DHT22;13129;48.012;10.352;2023-05-17T06:32:36;17.80;99.90
25170;DHT22;13129;48.012;10.352;2023-05-17T06:35:02;18.60;99.90
25170;DHT22;13129;48.012;10.352;2023-05-17T06:37:28;19.20;99.00
25170;DHT22;13129;48.012;10.352;2023-05-17T06:40:02;19.50;97.20
25170;DHT22;13129;48.012;10.352;2023-05-17T06:42:29;20.00;94.50
25170;DHT22;13129;48.012;10.352;2023-05-17T06:44:55;19.90;92.40
25170;DHT22;13129;48.012;10.352;2023-05-17T06:47:21;20.20;91.50
25170;DHT22;13129;48.012;10.352;2023-05-17T06:49:46;20.40;87.60
25170;DHT22;13129;48.012;10.352;2023-05-17T06:52:12;20.20;88.80
25170;DHT22;13129;48.012;10.352;2023-05-17T06:54:38;20.70;87.80
25170;DHT22;13129;48.012;10.352;2023-05-17T06:57:04;21.30;85.50
25170;DHT22;13129;48.012;10.352;2023-05-17T06:59:30;21.30;81.20
25170;DHT22;13129;48.012;10.352;2023-05-17T07:01:56;21.40;81.00
25170;DHT22;13129;48.012;10.352;2023-05-17T07:04:26;22.20;81.30
25170;DHT22;13129;48.012;10.352;2023-05-17T07:06:51;23.00;75.30
25170;DHT22;13129;48.012;10.352;2023-05-17T07:09:20;24.00;74.10
25170;DHT22;13129;48.012;10.352;2023-05-17T07:11:46;24.50;70.50
25170;DHT22;13129;48.012;10.352;2023-05-17T07:14:12;24.40;68.90
25170;DHT22;13129;48.012;10.352;2023-05-17T07:16:39;25.40;68.50
25170;DHT22;13129;48.012;10.352;2023-05-17T07:19:05;25.60;63.00
25170;DHT22;13129;48.012;10.352;2023-05-17T07:21:31;25.90;62.30
25170;DHT22;13129;48.012;10.352;2023-05-17T07:23:58;25.40;58.80
25170;DHT22;13129;48.012;10.352;2023-05-17T07:26:24;25.70;59.40
25170;DHT22;13129;48.012;10.352;2023-05-17T07:28:50;26.00;57.00
25170;DHT22;13129;48.012;10.352;2023-05-17T07:31:16;25.10;56.60
25170;DHT22;13129;48.012;10.352;2023-05-17T07:33:43;25.60;57.10
25170;DHT22;13129;48.012;10.352;2023-05-17T07:36:09;25.90;56.30
25170;DHT22;13129;48.012;10.352;2023-05-17T07:38:34;25.70;55.20
25170;DHT22;13129;48.012;10.352;2023-05-17T07:41:01;24.90;56.00
25170;DHT22;13129;48.012;10.352;2023-05-17T07:43:29;23.10;58.00
25170;DHT22;13129;48.012;10.352;2023-05-17T07:45:55;21.50;59.50
25170;DHT22;13129;48.012;10.352;2023-05-17T07:48:21;20.80;61.60
25170;DHT22;13129;48.012;10.352;2023-05-17T07:50:46;20.30;63.00
25170;DHT22;13129;48.012;10.352;2023-05-17T07:53:13;19.70;65.10
25170;DHT22;13129;48.012;10.352;2023-05-17T07:55:39;19.20;66.70
25170;DHT22;13129;48.012;10.352;2023-05-17T07:58:08;18.50;67.50
25170;DHT22;13129;48.012;10.352;2023-05-17T08:00:36;17.70;68.90
25170;DHT22;13129;48.012;10.352;2023-05-17T08:03:08;16.80;71.40
25170;DHT22;13129;48.012;10.352;2023-05-17T08:05:34;16.90;73.40
25170;DHT22;13129;48.012;10.352;2023-05-17T08:08:00;18.20;73.40
25170;DHT22;13129;48.012;10.352;2023-05-17T08:10:29;20.40;70.30
25170;DHT22;13129;48.012;10.352;2023-05-17T08:12:56;22.80;64.60
25170;DHT22;13129;48.012;10.352;2023-05-17T08:15:25;24.50;58.00
25170;DHT22;13129;48.012;10.352;2023-05-17T08:17:53;25.40;54.90
25170;DHT22;13129;48.012;10.352;2023-05-17T08:20:21;25.20;52.10
25170;DHT22;13129;48.012;10.352;2023-05-17T08:22:47;24.30;54.50
25170;DHT22;13129;48.012;10.352;2023-05-17T08:25:15;24.60;56.60
25170;DHT22;13129;48.012;10.352;2023-05-17T08:27:44;25.00;55.30
25170;DHT22;13129;48.012;10.352;2023-05-17T08:30:10;24.70;53.50
25170;DHT22;13129;48.012;10.352;2023-05-17T08:32:38;23.90;52.10
25170;DHT22;13129;48.012;10.352;2023-05-17T08:35:04;22.00;53.70
25170;DHT22;13129;48.012;10.352;2023-05-17T08:37:30;21.60;58.30
25170;DHT22;13129;48.012;10.352;2023-05-17T08:39:56;21.90;58.50
25170;DHT22;13129;48.012;10.352;2023-05-17T08:42:22;22.70;58.00
25170;DHT22;13129;48.012;10.352;2023-05-17T08:44:52;22.70;56.90
25170;DHT22;13129;48.012;10.352;2023-05-17T08:47:20;22.00;57.40
25170;DHT22;13129;48.012;10.352;2023-05-17T08:49:56;21.70;56.80
25170;DHT22;13129;48.012;10.352;2023-05-17T08:52:29;21.50;58.40
25170;DHT22;13129;48.012;10.352;2023-05-17T08:54:57;21.00;57.50
25170;DHT22;13129;48.012;10.352;2023-05-17T08:57:25;20.30;60.10
25170;DHT22;13129;48.012;10.352;2023-05-17T08:59:53;21.00;62.80
25170;DHT22;13129;48.012;10.352;2023-05-17T09:02:20;21.80;60.20
25170;DHT22;13129;48.012;10.352;2023-05-17T09:04:48;21.40;60.70
25170;DHT22;13129;48.012;10.352;2023-05-17T09:07:23;22.10;61.10
25170;DHT22;13129;48.012;10.352;2023-05-17T09:09:52;22.20;60.50
25170;DHT22;13129;48.012;10.352;2023-05-17T09:12:21;23.10;61.00
25170;DHT22;13129;48.012;10.352;2023-05-17T09:14:48;23.90;58.60
25170;DHT22;13129;48.012;10.352;2023-05-17T09:17:17;22.90;58.60
25170;DHT22;13129;48.012;10.352;2023-05-17T09:19:44;22.30;61.00
25170;DHT22;13129;48.012;10.352;2023-05-17T09:22:19;21.80;60.40
25170;DHT22;13129;48.012;10.352;2023-05-17T09:24:45;21.00;63.50
25170;DHT22;13129;48.012;10.352;2023-05-17T09:27:16;20.90;61.60
25170;DHT22;13129;48.012;10.352;2023-05-17T09:29:44;20.00;63.10
25170;DHT22;13129;48.012;10.352;2023-05-17T09:32:17;18.90;64.90
25170;DHT22;13129;48.012;10.352;2023-05-17T09:34:46;19.50;68.30
25170;DHT22;13129;48.012;10.352;2023-05-17T09:37:14;21.30;63.40
25170;DHT22;13129;48.012;10.352;2023-05-17T09:39:40;22.60;60.20
25170;DHT22;13129;48.012;10.352;2023-05-17T09:42:06;23.10;58.60
25170;DHT22;13129;48.012;10.352;2023-05-17T09:44:54;23.20;58.80
25170;DHT22;13129;48.012;10.352;2023-05-17T09:47:28;23.10;58.10
25170;DHT22;13129;48.012;10.352;2023-05-17T09:49:58;23.70;59.20
25170;DHT22;13129;48.012;10.352;2023-05-17T09:52:27;24.60;57.10
25170;DHT22;13129;48.012;10.352;2023-05-17T09:54:59;25.70;54.80
25170;DHT22;13129;48.012;10.352;2023-05-17T09:57:27;26.00;52.50
25170;DHT22;13129;48.012;10.352;2023-05-17T09:59:56;25.60;50.60
25170;DHT22;13129;48.012;10.352;2023-05-17T10:02:32;25.60;51.00
25170;DHT22;13129;48.012;10.352;2023-05-17T10:04:58;25.80;52.30
25170;DHT22;13129;48.012;10.352;2023-05-17T10:07:30;26.40;52.90
25170;DHT22;13129;48.012;10.352;2023-05-17T10:09:58;26.80;50.80
25170;DHT22;13129;48.012;10.352;2023-05-17T10:12:29;26.50;49.40
25170;DHT22;13129;48.012;10.352;2023-05-17T10:15:06;26.10;49.90
25170;DHT22;13129;48.012;10.352;2023-05-17T10:17:33;24.60;50.00
25170;DHT22;13129;48.012;10.352;2023-05-17T10:20:02;22.60;51.20
25170;DHT22;13129;48.012;10.352;2023-05-17T10:22:32;20.50;54.80
25170;DHT22;13129;48.012;10.352;2023-05-17T10:24:58;18.90;56.80
25170;DHT22;13129;48.012;10.352;2023-05-17T10:27:25;18.00;59.30
25170;DHT22;13129;48.012;10.352;2023-05-17T10:29:52;17.20;63.10
25170;DHT22;13129;48.012;10.352;2023-05-17T10:32:20;16.80;66.10
25170;DHT22;13129;48.012;10.352;2023-05-17T10:34:51;16.30;66.40
25170;DHT22;13129;48.012;10.352;2023-05-17T10:37:18;16.00;68.60
25170;DHT22;13129;48.012;10.352;2023-05-17T10:39:47;15.90;69.80
25170;DHT22;13129;48.012;10.352;2023-05-17T10:42:20;15.60;71.90
25170;DHT22;13129;48.012;10.352;2023-05-17T10:44:47;15.40;72.30
25170;DHT22;13129;48.012;10.352;2023-05-17T10:47:13;15.30;72.70
25170;DHT22;13129;48.012;10.352;2023-05-17T10:49:39;15.10;72.20
25170;DHT22;13129;48.012;10.352;2023-05-17T10:52:12;14.80;73.20
25170;DHT22;13129;48.012;10.352;2023-05-17T10:54:42;14.90;73.90
25170;DHT22;13129;48.012;10.352;2023-05-17T10:57:08;14.90;74.00
25170;DHT22;13129;48.012;10.352;2023-05-17T11:00:00;15.50;74.10
25170;DHT22;13129;48.012;10.352;2023-05-17T11:02:30;16.50;72.60
25170;DHT22;13129;48.012;10.352;2023-05-17T11:04:56;16.60;72.20
25170;DHT22;13129;48.012;10.352;2023-05-17T11:07:27;16.20;71.70
25170;DHT22;13129;48.012;10.352;2023-05-17T11:12:41;15.40;72.00
25170;DHT22;13129;48.012;10.352;2023-05-17T11:15:13;15.50;71.70
25170;DHT22;13129;48.012;10.352;2023-05-17T11:23:06;16.60;69.20
25170;DHT22;13129;48.012;10.352;2023-05-17T11:25:40;16.30;67.80
25170;DHT22;13129;48.012;10.352;2023-05-17T11:28:20;16.00;67.70
25170;DHT22;13129;48.012;10.352;2023-05-17T11:30:46;15.30;68.80
25170;DHT22;13129;48.012;10.352;2023-05-17T11:33:16;15.10;69.80
25170;DHT22;13129;48.012;10.352;2023-05-17T11:35:43;15.10;71.60
25170;DHT22;13129;48.012;10.352;2023-05-17T11:38:19;15.00;72.10
25170;DHT22;13129;48.012;10.352;2023-05-17T11:40:52;15.00;72.50
25170;DHT22;13129;48.012;10.352;2023-05-17T11:43:23;15.10;75.30
25170;DHT22;13129;48.012;10.352;2023-05-17T11:48:19;15.40;75.20
25170;DHT22;13129;48.012;10.352;2023-05-17T11:50:47;15.50;75.00
25170;DHT22;13129;48.012;10.352;2023-05-17T11:53:14;15.90;74.20
25170;DHT22;13129;48.012;10.352;2023-05-17T11:55:44;16.50;74.40
25170;DHT22;13129;48.012;10.352;2023-05-17T11:58:14;16.90;73.50
25170;DHT22;13129;48.012;10.352;2023-05-17T12:00:55;16.80;73.20
25170;DHT22;13129;48.012;10.352;2023-05-17T12:03:23;16.50;73.80
25170;DHT22;13129;48.012;10.352;2023-05-17T12:06:07;16.30;74.00
25170;DHT22;13129;48.012;10.352;2023-05-17T12:08:38;16.20;74.40
25170;DHT22;13129;48.012;10.352;2023-05-17T12:11:05;15.90;73.10
25170;DHT22;13129;48.012;10.352;2023-05-17T12:13:33;15.60;71.10
25170;DHT22;13129;48.012;10.352;2023-05-17T12:16:01;15.10;71.10
25170;DHT22;13129;48.012;10.352;2023-05-17T12:18:41;15.20;72.40
25170;DHT22;13129;48.012;10.352;2023-05-17T12:21:08;15.60;73.70
25170;DHT22;13129;48.012;10.352;2023-05-17T12:23:42;16.00;75.40
25170;DHT22;13129;48.012;10.352;2023-05-17T12:26:16;16.50;74.80
25170;DHT22;13129;48.012;10.352;2023-05-17T12:31:27;16.70;75.60
25170;DHT22;13129;48.012;10.352;2023-05-17T12:33:54;16.40;75.10
25170;DHT22;13129;48.012;10.352;2023-05-17T12:36:21;16.30;75.30
25170;DHT22;13129;48.012;10.352;2023-05-17T12:38:47;16.10;76.10
25170;DHT22;13129;48.012;10.352;2023-05-17T12:41:15;16.10;76.60
25170;DHT22;13129;48.012;10.352;2023-05-17T12:43:43;16.00;75.80
25170;DHT22;13129;48.012;10.352;2023-05-17T12:46:14;16.00;75.70
25170;DHT22;13129;48.012;10.352;2023-05-17T12:48:43;16.00;75.70
25170;DHT22;13129;48.012;10.352;2023-05-17T12:51:13;16.10;75.40
25170;DHT22;13129;48.012;10.352;2023-05-17T12:53:55;16.40;75.20
25170;DHT22;13129;48.012;10.352;2023-05-17T12:56:23;16.60;74.10
25170;DHT22;13129;48.012;10.352;2023-05-17T12:59:12;16.40;71.60
25170;DHT22;13129;48.012;10.352;2023-05-17T13:01:40;16.40;71.00
25170;DHT22;13129;48.012;10.352;2023-05-17T13:04:06;16.50;70.00
25170;DHT22;13129;48.012;10.352;2023-05-17T13:06:55;16.30;70.80
25170;DHT22;13129;48.012;10.352;2023-05-17T13:09:24;16.20;72.30
25170;DHT22;13129;48.012;10.352;2023-05-17T13:11:50;15.80;73.70
25170;DHT22;13129;48.012;10.352;2023-05-17T13:17:06;15.10;76.90
25170;DHT22;13129;48.012;10.352;2023-05-17T13:19:32;14.90;77.90
25170;DHT22;13129;48.012;10.352;2023-05-17T13:22:00;14.80;78.60
25170;DHT22;13129;48.012;10.352;2023-05-17T13:24:26;14.70;79.50
25170;DHT22;13129;48.012;10.352;2023-05-17T13:26:54;14.70;79.80
25170;DHT22;13129;48.012;10.352;2023-05-17T13:29:20;14.80;80.10
25170;DHT22;13129;48.012;10.352;2023-05-17T13:31:46;14.90;80.00
25170;DHT22;13129;48.012;10.352;2023-05-17T13:34:12;15.00;78.90
25170;DHT22;13129;48.012;10.352;2023-05-17T13:36:38;15.10;78.20
25170;DHT22;13129;48.012;10.352;2023-05-17T13:39:03;15.10;77.90
25170;DHT22;13129;48.012;10.352;2023-05-17T13:41:29;15.20;78.00
25170;DHT22;13129;48.012;10.352;2023-05-17T13:43:55;15.20;78.00
25170;DHT22;13129;48.012;10.352;2023-05-17T13:46:22;15.20;77.20
25170;DHT22;13129;48.012;10.352;2023-05-17T13:48:51;15.10;76.70
25170;DHT22;13129;48.012;10.352;2023-05-17T13:51:16;15.00;75.70
25170;DHT22;13129;48.012;10.352;2023-05-17T13:53:42;15.00;77.10
25170;DHT22;13129;48.012;10.352;2023-05-17T13:56:08;15.00;77.60
25170;DHT22;13129;48.012;10.352;2023-05-17T13:58:34;15.00;77.70
25170;DHT22;13129;48.012;10.352;2023-05-17T14:00:59;15.00;77.60
25170;DHT22;13129;48.012;10.352;2023-05-17T14:03:25;15.00;78.20
25170;DHT22;13129;48.012;10.352;2023-05-17T14:05:51;15.30;77.90
25170;DHT22;13129;48.012;10.352;2023-05-17T14:08:18;15.50;77.10
25170;DHT22;13129;48.012;10.352;2023-05-17T14:10:44;15.70;76.90
25170;DHT22;13129;48.012;10.352;2023-05-17T14:13:10;15.60;76.30
25170;DHT22;13129;48.012;10.352;2023-05-17T14:15:38;15.40;76.50
25170;DHT22;13129;48.012;10.352;2023-05-17T14:18:05;15.00;77.20
25170;DHT22;13129;48.012;10.352;2023-05-17T14:20:31;14.70;78.30
25170;DHT22;13129;48.012;10.352;2023-05-17T14:22:57;14.40;79.20
25170;DHT22;13129;48.012;10.352;2023-05-17T14:25:23;14.30;80.50
25170;DHT22;13129;48.012;10.352;2023-05-17T14:27:49;14.20;80.80
25170;DHT22;13129;48.012;10.352;2023-05-17T14:30:15;14.20;81.10
25170;DHT22;13129;48.012;10.352;2023-05-17T14:32:41;14.20;80.90
25170;DHT22;13129;48.012;10.352;2023-05-17T14:35:07;14.20;80.50
25170;DHT22;13129;48.012;10.352;2023-05-17T14:37:33;14.30;80.90
25170;DHT22;13129;48.012;10.352;2023-05-17T14:39:59;14.40;80.80
25170;DHT22;13129;48.012;10.352;2023-05-17T14:42:26;14.50;80.90
25170;DHT22;13129;48.012;10.352;2023-05-17T14:44:52;14.50;80.10
25170;DHT22;13129;48.012;10.352;2023-05-17T14:47:17;14.50;79.00
25170;DHT22;13129;48.012;10.352;2023-05-17T14:49:45;14.50;78.40
25170;DHT22;13129;48.012;10.352;2023-05-17T14:52:11;14.60;79.00
25170;DHT22;13129;48.012;10.352;2023-05-17T14:54:38;14.60;78.90
25170;DHT22;13129;48.012;10.352;2023-05-17T14:57:04;14.60;79.10
25170;DHT22;13129;48.012;10.352;2023-05-17T14:59:30;14.70;79.80
25170;DHT22;13129;48.012;10.352;2023-05-17T15:01:56;14.70;79.80
25170;DHT22;13129;48.012;10.352;2023-05-17T15:04:22;14.60;79.20
25170;DHT22;13129;48.012;10.352;2023-05-17T15:06:48;14.80;79.70
25170;DHT22;13129;48.012;10.352;2023-05-17T15:09:16;14.80;79.70
25170;DHT22;13129;48.012;10.352;2023-05-17T15:11:42;14.70;79.10
25170;DHT22;13129;48.012;10.352;2023-05-17T15:14:09;14.50;79.10
25170;DHT22;13129;48.012;10.352;2023-05-17T15:16:35;14.30;80.40
25170;DHT22;13129;48.012;10.352;2023-05-17T15:19:01;14.20;80.20
25170;DHT22;13129;48.012;10.352;2023-05-17T15:21:27;14.00;80.10
25170;DHT22;13129;48.012;10.352;2023-05-17T15:23:53;13.80;80.10
25170;DHT22;13129;48.012;10.352;2023-05-17T15:26:18;13.70;80.50
25170;DHT22;13129;48.012;10.352;2023-05-17T15:28:44;13.60;81.40
25170;DHT22;13129;48.012;10.352;2023-05-17T15:31:11;13.70;82.60
25170;DHT22;13129;48.012;10.352;2023-05-17T15:33:37;13.70;82.60
25170;DHT22;13129;48.012;10.352;2023-05-17T15:36:10;13.80;82.60
25170;DHT22;13129;48.012;10.352;2023-05-17T15:38:36;13.80;82.80
25170;DHT22;13129;48.012;10.352;2023-05-17T15:41:09;13.80;83.10
25170;DHT22;13129;48.012;10.352;2023-05-17T15:43:35;13.80;83.00
25170;DHT22;13129;48.012;10.352;2023-05-17T15:46:02;13.90;83.70
25170;DHT22;13129;48.012;10.352;2023-05-17T15:48:27;14.00;84.40
25170;DHT22;13129;48.012;10.352;2023-05-17T15:50:54;14.10;84.40
25170;DHT22;13129;48.012;10.352;2023-05-17T15:53:21;14.20;83.40
25170;DHT22;13129;48.012;10.352;2023-05-17T15:55:46;14.10;83.00
25170;DHT22;13129;48.012;10.352;2023-05-17T15:58:20;14.00;83.30
25170;DHT22;13129;48.012;10.352;2023-05-17T16:00:46;13.80;82.80
25170;DHT22;13129;48.012;10.352;2023-05-17T16:03:13;13.50;82.90
25170;DHT22;13129;48.012;10.352;2023-05-17T16:05:40;13.40;83.20
25170;DHT22;13129;48.012;10.352;2023-05-17T16:08:07;13.20;84.10
25170;DHT22;13129;48.012;10.352;2023-05-17T16:10:33;13.00;84.50
25170;DHT22;13129;48.012;10.352;2023-05-17T16:12:59;12.90;85.40
25170;DHT22;13129;48.012;10.352;2023-05-17T16:15:25;12.90;85.90
25170;DHT22;13129;48.012;10.352;2023-05-17T16:17:53;12.90;85.90
25170;DHT22;13129;48.012;10.352;2023-05-17T16:20:19;12.90;85.50
25170;DHT22;13129;48.012;10.352;2023-05-17T16:22:46;12.80;85.50
25170;DHT22;13129;48.012;10.352;2023-05-17T16:25:18;12.80;85.60
25170;DHT22;13129;48.012;10.352;2023-05-17T16:27:45;12.80;85.90
25170;DHT22;13129;48.012;10.352;2023-05-17T16:30:11;12.80;86.20
25170;DHT22;13129;48.012;10.352;2023-05-17T16:32:37;12.80;86.50
25170;DHT22;13129;48.012;10.352;2023-05-17T16:35:03;12.80;87.20
25170;DHT22;13129;48.012;10.352;2023-05-17T16:37:29;12.80;87.50
25170;DHT22;13129;48.012;10.352;2023-05-17T16:39:55;12.70;87.60
25170;DHT22;13129;48.012;10.352;2023-05-17T16:42:21;12.60;88.20
25170;DHT22;13129;48.012;10.352;2023-05-17T16:44:47;12.70;88.70
25170;DHT22;13129;48.012;10.352;2023-05-17T16:47:14;12.70;88.80
25170;DHT22;13129;48.012;10.352;2023-05-17T16:49:41;12.60;89.00
25170;DHT22;13129;48.012;10.352;2023-05-17T16:52:07;12.60;89.60
25170;DHT22;13129;48.012;10.352;2023-05-17T16:54:33;12.60;89.30
25170;DHT22;13129;48.012;10.352;2023-05-17T16:57:00;12.50;89.70
25170;DHT22;13129;48.012;10.352;2023-05-17T16:59:26;12.40;89.70
25170;DHT22;13129;48.012;10.352;2023-05-17T17:01:52;12.30;90.10
25170;DHT22;13129;48.012;10.352;2023-05-17T17:04:18;12.20;90.10
25170;DHT22;13129;48.012;10.352;2023-05-17T17:06:44;12.20;90.30
25170;DHT22;13129;48.012;10.352;2023-05-17T17:09:09;12.20;90.60
25170;DHT22;13129;48.012;10.352;2023-05-17T17:11:36;12.10;90.60
25170;DHT22;13129;48.012;10.352;2023-05-17T17:14:02;12.10;90.80
25170;DHT22;13129;48.012;10.352;2023-05-17T17:16:28;12.00;91.00
25170;DHT22;13129;48.012;10.352;2023-05-17T17:18:55;11.90;91.10
25170;DHT22;13129;48.012;10.352;2023-05-17T17:21:21;11.80;91.50
25170;DHT22;13129;48.012;10.352;2023-05-17T17:23:47;11.70;91.60
25170;DHT22;13129;48.012;10.352;2023-05-17T17:26:13;11.70;91.50
25170;DHT22;13129;48.012;10.352;2023-05-17T17:28:39;11.70;91.60
25170;DHT22;13129;48.012;10.352;2023-05-17T17:31:05;11.60;91.70
25170;DHT22;13129;48.012;10.352;2023-05-17T17:33:31;11.50;91.80
25170;DHT22;13129;48.012;10.352;2023-05-17T17:35:56;11.40;91.90
25170;DHT22;13129;48.012;10.352;2023-05-17T17:38:22;11.40;92.00
25170;DHT22;13129;48.012;10.352;2023-05-17T17:40:48;11.20;92.10
25170;DHT22;13129;48.012;10.352;2023-05-17T17:43:13;11.10;92.30
25170;DHT22;13129;48.012;10.352;2023-05-17T17:45:39;11.10;92.60
25170;DHT22;13129;48.012;10.352;2023-05-17T17:48:05;10.90;92.70
25170;DHT22;13129;48.012;10.352;2023-05-17T17:50:31;10.80;93.00
25170;DHT22;13129;48.012;10.352;2023-05-17T17:52:58;10.70;93.20
25170;DHT22;13129;48.012;10.352;2023-05-17T17:55:25;10.50;93.30
25170;DHT22;13129;48.012;10.352;2023-05-17T17:57:50;10.40;93.50
25170;DHT22;13129;48.012;10.352;2023-05-17T18:00:18;10.40;93.70
25170;DHT22;13129;48.012;10.352;2023-05-17T18:02:43;10.30;93.90
25170;DHT22;13129;48.012;10.352;2023-05-17T18:05:10;10.20;93.90
25170;DHT22;13129;48.012;10.352;2023-05-17T18:07:35;10.10;94.00
25170;DHT22;13129;48.012;10.352;2023-05-17T18:10:02;10.00;94.20
25170;DHT22;13129;48.012;10.352;2023-05-17T18:12:27;9.90;94.30
25170;DHT22;13129;48.012;10.352;2023-05-17T18:14:53;9.80;94.50
25170;DHT22;13129;48.012;10.352;2023-05-17T18:17:19;9.70;94.60
25170;DHT22;13129;48.012;10.352;2023-05-17T18:19:45;9.60;94.80
25170;DHT22;13129;48.012;10.352;2023-05-17T18:22:11;9.50;95.00
25170;DHT22;13129;48.012;10.352;2023-05-17T18:24:37;9.40;95.20
25170;DHT22;13129;48.012;10.352;2023-05-17T18:27:02;9.30;95.40
25170;DHT22;13129;48.012;10.352;2023-05-17T18:29:28;9.20;95.50
25170;DHT22;13129;48.012;10.352;2023-05-17T18:31:54;9.10;95.80
25170;DHT22;13129;48.012;10.352;2023-05-17T18:34:20;9.00;95.90
25170;DHT22;13129;48.012;10.352;2023-05-17T18:36:45;9.00;96.10
25170;DHT22;13129;48.012;10.352;2023-05-17T18:39:11;8.90;96.30
25170;DHT22;13129;48.012;10.352;2023-05-17T18:41:37;8.90;96.50
25170;DHT22;13129;48.012;10.352;2023-05-17T18:44:02;8.90;96.70
25170;DHT22;13129;48.012;10.352;2023-05-17T18:46:28;8.80;96.90
25170;DHT22;13129;48.012;10.352;2023-05-17T18:48:54;8.80;97.00
25170;DHT22;13129;48.012;10.352;2023-05-17T18:51:20;8.80;97.20
25170;DHT22;13129;48.012;10.352;2023-05-17T18:53:45;8.70;97.40
25170;DHT22;13129;48.012;10.352;2023-05-17T18:56:11;8.70;97.50
25170;DHT22;13129;48.012;10.352;2023-05-17T18:58:38;8.70;97.60
25170;DHT22;13129;48.012;10.352;2023-05-17T19:01:04;8.70;97.80
25170;DHT22;13129;48.012;10.352;2023-05-17T19:03:30;8.60;98.00
25170;DHT22;13129;48.012;10.352;2023-05-17T19:05:55;8.60;98.20
25170;DHT22;13129;48.012;10.352;2023-05-17T19:08:21;8.60;98.30